Curtin, Western Australia

1:05 PM AWST on August 31, 2016 (GMT +0800)
Curtin | | Change Station

Elev 299 ft 17.58 °S, 123.83 °E | Updated 35 minutes ago

Scattered Clouds
Scattered Clouds
86 °F
Feels Like 89 °F
N
8
Wind Variable Wind from West

Today
High -- | Low -- °F
--% Chance of Precip.
Yesterday
High -- | Low -- °F
Precip. -- in
Pressure 29.92 in
Visibility -9999.0 miles
Clouds Scattered Clouds 3900 ft
Scattered Clouds 4400 ft
Scattered Clouds 4900 ft
Heat Index 89 °F
Dew Point 68 °F
Humidity 55%
Rainfall 0.00 in
Snow Depth Not available.
5:52 AM 5:37 PM
Waning Crescent, 1% visible
METAR YCIN 310430Z AUTO 27007KT 240V300 //// // SCT039 SCT044 SCT049 30/20 Q1013
Pressure 29.92 in
Visibility -9999.0 miles
Clouds Scattered Clouds 3900 ft
Scattered Clouds 4400 ft
Scattered Clouds 4900 ft
Heat Index 89 °F
Dew Point 68 °F
Humidity 55%
Rainfall 0.00 in
Snow Depth Not available.
5:52 AM 5:37 PM
Waning Crescent, 1% visible
METAR YCIN 310430Z AUTO 27007KT 240V300 //// // SCT039 SCT044 SCT049 30/20 Q1013

10-Day Weather Forecast

No radar image for this location.
×

Almanac

Astronomy

Aug. 31, 2016 Rise Set
Actual Time
Civil Twilight
Nautical Twilight
Astronomical Twilight
Moon
Length of Visible Light
Length of Day
Tomorrow will be .
, % of the Moon is Illuminated

Today's Extremes

Country Highs Country Lows

Community

WunderPhotos

Upload Photos

1,936,040 photos uploaded!

WunderBlog® & News

Nearby

Air Quality

  Air Quality AQ Index Pollutant
Not available.

Snow Depth

Station Depth Elevation

Earthquake Activity

City Distance Mag. Time & Date
Minimum magnitude displayed is 2.5.

Coastal Water Temperatures

Place Temperature

Stations

Nearby Weather Stations

Station Location Temp. Windchill Dew Point Humidity Wind Precip. Elev Updated Type